ADDS METAR Data INFO
IDs: Format: Raw Decoded Include TAF

Data at: 1524 UTC 18 Jun 2018

PAGY 181453Z AUTO 00000KT 10SM OVC012 13/12 A3023 RMK AO2 SLP237 T01330122 51009 TSNO
PAGY 181436Z AUTO 00000KT 10SM BKN011 OVC017 13/12 A3022 RMK AO2 T01330122 TSNO
PAGY 181353Z AUTO 00000KT 10SM OVC007 13/12 A3023 RMK AO2 SLP236 T01330117 TSNO
PAGY 181303Z AUTO 00000KT 10SM BKN008 OVC017 13/12 A3022 RMK AO2 CIG 006V014 T01280117 TSNO
PAGY 181253Z AUTO VRB04KT 10SM SCT008 OVC015 13/12 A3023 RMK AO2 SLP236 T01280117 TSNO
PAGY 181217Z AUTO 25006KT 10SM SCT015 BKN020 OVC027 13/11 A3022 RMK AO2 T01280111 TSNO
PAGY 181153Z AUTO 19008KT 10SM OVC012 14/12 A3020 RMK AO2 SLP228 60000 T01440117 10150 20133 51001 TSNO
PAGY 181142Z AUTO 19009KT 10SM OVC013 14/12 A3021 RMK AO2 T01390117 TSNO
PAGY 181121Z AUTO 18007G16KT 10SM OVC015 15/12 A3020 RMK AO2 T01500122 TSNO
PAGY 181053Z AUTO 20007KT 10SM OVC014 14/12 A3020 RMK AO2 SLP226 T01390122 TSNO
PAGY 180953Z AUTO 20008KT 10SM OVC014 14/12 A3021 RMK AO2 RAE0858 SLP231 P0000 T01390122 TSNO
PAGY 180853Z AUTO 20011KT 5SM -RA BR BKN014 OVC039 14/12 A3020 RMK AO2 RAB44 SLP227 P0000 60000 T01390122 401720122 53005 TSNO
PAGY 180753Z AUTO 20014KT 10SM BKN014 OVC044 14/12 A3019 RMK AO2 RAB26E36 SLP222 P0000 T01440117 TSNO
PAGY 180745Z AUTO 21015KT 10SM BKN014 OVC043 14/12 A3017 RMK AO2 RAB26E36 P0000 T01440122 TSNO
PAGY 180653Z AUTO 21014KT 10SM OVC043 15/12 A3017 RMK AO2 SLP217 T01500117 TSNO
PAGY 180553Z AUTO 21013G19KT 10SM OVC045 15/12 A3019 RMK AO2 SLP221 T01500117 10161 20144 53012 TSNO
PAGY 180453Z AUTO 20010KT 10SM OVC050 16/12 A3017 RMK AO2 SLP216 T01560117 TSNO
PAGY 180353Z AUTO 21016KT 10SM OVC050 15/11 A3015 RMK AO2 SLP211 T01500111 TSNO
PAGY 180253Z AUTO 21018G24KT 10SM OVC048 15/11 A3015 RMK AO2 PK WND 21027/0207 SLP210 T01500111 50002 TSNO
PAGY 180153Z AUTO 21020G27KT 10SM OVC050 15/11 A3016 RMK AO2 PK WND 21027/0145 SLP212 T01500106 TSNO
PAGY 180053Z AUTO 21018KT 10SM OVC050 16/10 A3015 RMK AO2 SLP211 T01560100 TSNO
PAGY 172353Z AUTO 21016KT 10SM OVC050 16/09 A3014 RMK AO2 SLP208 T01610094 10172 20144 55000 TSNO
PAGY 172253Z AUTO 21019G24KT 10SM BKN050 OVC070 16/09 A3014 RMK AO2 SLP206 T01610094 TSNO
PAGY 172153Z AUTO 20015G22KT 10SM BKN055 17/11 A3013 RMK AO2 SLP204 T01720106 TSNO
PAGY 172053Z AUTO 21013G21KT 10SM BKN060 17/11 A3014 RMK AO2 SLP208 T01670106 56003 TSNO
PAGY 171953Z AUTO 21017KT 10SM BKN050 OVC060 16/11 A3015 RMK AO2 SLP210 T01560106 TSNO
PAGY 171853Z AUTO 21018G25KT 10SM OVC050 14/11 A3014 RMK AO2 PK WND 20027/1800 SLP207 T01440111 TSNO
PAGY 171753Z AUTO 21018KT 10SM OVC050 14/11 A3015 RMK AO2 PK WND 21026/1744 SLP210 60000 T01440111 10144 20122 51007 TSNO
PAGY 171653Z AUTO 21016G22KT 10SM SCT015 BKN050 14/11 A3015 RMK AO2 PK WND 20026/1625 SLP208 T01390111 TSNO
PAGY 171639Z AUTO 20016KT 10SM BKN015 OVC050 14/11 A3014 RMK AO2 PK WND 20026/1625 T01390111 TSNO
PAGY 171608Z AUTO 21018KT 10SM BKN013 BKN017 OVC050 13/11 A3013 RMK AO2 T01330111 TSNO
PAGY 171553Z AUTO 20015G22KT 10SM BKN015 OVC050 13/11 A3014 RMK AO2 RAE1457 SLP207 P0000 T01330111 TSNO
PAGY 171453Z AUTO 20012G20KT 10SM -RA BKN018 OVC048 13/11 A3013 RMK AO2 RAB52 SLP203 P0000 60000 T01330111 55000 TSNO
PAGY 171445Z AUTO 20013G21KT 10SM BKN016 OVC050 13/11 A3012 RMK AO2 T01330106 TSNO
PAGY 171353Z AUTO 20009G16KT 10SM OVC011 13/11 A3013 RMK AO2 SLP203 T01280106 TSNO
PAGY 171253Z AUTO 20011KT 10SM OVC011 12/11 A3013 RMK AO2 SLP202 T01220106 TSNO
PAGY 171153Z AUTO 19010KT 8SM OVC014 12/11 A3013 RMK AO2 SLP203 60001 70001 T01220106 10133 20117 50004 TSNO
PAGY 171144Z AUTO 19011G17KT 10SM OVC014 12/11 A3013 RMK AO2 T01220106 TSNO
PAGY 171053Z AUTO 20010KT 10SM OVC016 13/11 A3013 RMK AO2 SLP204 T01280106 TSNO
PAGY 170953Z AUTO 20011KT 10SM BKN016 OVC047 13/11 A3013 RMK AO2 RAB18E28 SLP201 P0000 T01280106 TSNO
PAGY 170853Z AUTO 20013G21KT 10SM OVC016 13/11 A3012 RMK AO2 RAE03 SLP199 P0000 60001 T01280106 401440117 52001 TSNO
PAGY 170753Z AUTO 20014G21KT 7SM -RA BKN018 OVC044 13/11 A3012 RMK AO2 RAB10 SLP199 P0001 T01280106 TSNO
PAGY 170653Z AUTO 20018G25KT 10SM BKN018 OVC043 13/10 A3012 RMK AO2 PK WND 21027/0601 RAE02 SLP198 P0000 T01330100 TSNO
PAGY 170553Z AUTO 23011KT 9SM -RA BKN017 OVC021 12/10 A3012 RMK AO2 RAB42 SLP198 P0000 60000 T01170100 10144 20117 50001 TSNO
PAGY 170453Z AUTO VRB03KT 10SM OVC020 13/10 A3012 RMK AO2 RAB23E44 SLP200 P0000 T01330100 TSNO
PAGY 170353Z AUTO 22007G15KT 160V270 10SM SCT016 OVC024 14/10 A3012 RMK AO2 RAE02 SLP198 P0000 T01390100 TSNO